カイロ の空港の天気 - METARとTAF

カイロ国際空港 ( HECA / CAI ) - エジプト [カイロ
飛行場実況気象(Metar)
観測時間10/16 10:00 EET (10/16 08:00 UTC)
風向・風速北北西 2m/s
視程6000m
天気現象
全天の4割程度の雲 雲底高度 760m
気温27℃
湿度66%
気圧1016hPa
METARHECA 160800Z 33004KT 6000 SCT025 27/20 Q1016 NOSIG
過去の天気等 Google飛行場航空写真 Wunderground天気予報

過去48時間のMETAR

飛行場予報(TAF)
発表時間: 10/16 07:00 EET (10/16 05:00 UTC)
予報対象時間: 16日8時 EET ~ 17日14時 EET
風向・風速北北西 4m/s
視程6000m
なし
16日8時 EET ~ 16日10時 EET に一時的に
風向・風速不定 2m/s
視程4000m
天気現象もや
16日10時 EET ~ 16日12時 EET に徐々に
風向・風速北 5m/s
視程10km以上
全天の4割程度の雲 雲底高度 760m
TAF HECA 160500Z 1606/1712 34008KT 6000 NSC
TEMPO 1606/1608 VRB03KT 4000 BR
BECMG 1608/1610 35010KT 9999 SCT025